Time;durP1;ratioP1;P1;durP2;ratioP2;P2;SDS_P1;SDS_P2;PMS_P1;PMS_P2;Temp;Humidity;BMP_temperature;BMP_pressure;BME280_temperature;BME280_humidity;BME280_pressure;Samples;Min_cycle;Max_cycle;Signal;HPM_P1;HPM_P2
2023/03/08 00:00:41;;;;;;;29.05;16.73;;;4.70;99.90;;;;;;5010841;28;20102;-73
2023/03/08 00:03:12;;;;;;;27.48;16.15;;;4.80;99.90;;;;;;5015882;28;20555;-74
2023/03/08 00:05:38;;;;;;;32.67;17.08;;;4.80;99.90;;;;;;5013245;28;20023;-74
2023/03/08 00:08:03;;;;;;;31.50;16.67;;;4.80;99.90;;;;;;5010486;28;20035;-74
2023/03/08 00:10:29;;;;;;;29.13;17.58;;;4.80;99.90;;;;;;5008235;28;20076;-74
2023/03/08 00:12:54;;;;;;;35.17;18.70;;;4.80;99.90;;;;;;4995984;28;20030;-74
2023/03/08 00:15:20;;;;;;;34.40;18.08;;;4.80;99.90;;;;;;5006137;28;20030;-74
2023/03/08 00:17:46;;;;;;;34.30;18.58;;;4.80;99.90;;;;;;4997097;28;20458;-74
2023/03/08 00:20:12;;;;;;;38.88;20.75;;;4.80;99.90;;;;;;5010470;28;20031;-74
2023/03/08 00:22:40;;;;;;;35.13;19.52;;;4.80;99.90;;;;;;4993627;28;20049;-74
2023/03/08 00:25:07;;;;;;;33.65;18.92;;;4.80;99.90;;;;;;4989976;28;20035;-75
2023/03/08 00:27:34;;;;;;;37.25;19.02;;;4.80;99.90;;;;;;4993604;28;20471;-74
2023/03/08 00:30:00;;;;;;;38.10;19.85;;;4.80;99.90;;;;;;4989122;28;20283;-74
2023/03/08 00:32:26;;;;;;;37.95;20.52;;;4.90;99.90;;;;;;4990280;28;20532;-74
2023/03/08 00:34:53;;;;;;;32.40;19.30;;;4.90;99.90;;;;;;4986465;28;20030;-74
2023/03/08 00:37:19;;;;;;;33.03;20.10;;;4.90;99.90;;;;;;4987528;28;20368;-73
2023/03/08 00:39:52;;;;;;;35.45;19.92;;;4.90;99.90;;;;;;4985036;28;20037;-74
2023/03/08 00:42:19;;;;;;;33.42;19.15;;;4.80;99.90;;;;;;4990908;28;20435;-73
2023/03/08 00:44:44;;;;;;;37.92;20.95;;;4.80;99.90;;;;;;4988875;28;20097;-73
2023/03/08 00:47:10;;;;;;;39.40;21.05;;;4.80;99.90;;;;;;4982325;28;20034;-73
2023/03/08 00:49:36;;;;;;;43.10;22.58;;;4.80;99.90;;;;;;4980266;28;20030;-74
2023/03/08 00:52:01;;;;;;;40.67;21.10;;;4.80;99.90;;;;;;4985186;28;20390;-73
2023/03/08 00:54:28;;;;;;;47.38;22.02;;;4.80;99.90;;;;;;4988842;28;20037;-73
2023/03/08 00:56:54;;;;;;;41.60;21.15;;;4.80;99.90;;;;;;4979891;28;20054;-73
2023/03/08 00:59:20;;;;;;;39.83;21.08;;;4.80;99.90;;;;;;4982331;28;20062;-73
2023/03/08 01:01:45;;;;;;;39.08;22.67;;;4.80;99.90;;;;;;4979093;28;20035;-74
2023/03/08 01:04:11;;;;;;;41.05;22.73;;;4.70;99.90;;;;;;4986941;28;20494;-73
2023/03/08 01:06:38;;;;;;;55.78;26.27;;;4.80;99.90;;;;;;4991542;28;20102;-74
2023/03/08 01:09:03;;;;;;;48.55;23.67;;;4.80;99.90;;;;;;4984384;28;20034;-74
2023/03/08 01:11:30;;;;;;;48.05;24.33;;;4.80;99.90;;;;;;4989026;28;20119;-74
2023/03/08 01:13:56;;;;;;;50.60;25.10;;;4.80;99.90;;;;;;4983340;28;20034;-73
2023/03/08 01:16:27;;;;;;;47.38;24.02;;;4.80;99.90;;;;;;4985742;28;20072;-74
2023/03/08 01:18:53;;;;;;;44.33;22.97;;;4.80;99.90;;;;;;4985423;28;20104;-73
2023/03/08 01:21:20;;;;;;;43.45;23.65;;;4.80;99.90;;;;;;4987028;28;20057;-73
2023/03/08 01:23:46;;;;;;;47.67;25.35;;;4.90;99.90;;;;;;4984855;28;20137;-74
2023/03/08 01:26:15;;;;;;;51.42;25.00;;;4.90;99.90;;;;;;4986815;28;20156;-74
2023/03/08 01:28:41;;;;;;;48.53;24.75;;;4.90;99.90;;;;;;4977024;28;20038;-74
2023/03/08 01:31:13;;;;;;;52.42;27.38;;;4.90;99.90;;;;;;4983434;28;20023;-74
2023/03/08 01:33:39;;;;;;;48.03;25.15;;;4.80;99.90;;;;;;4975505;28;20120;-73
2023/03/08 01:36:06;;;;;;;51.25;26.52;;;4.90;99.90;;;;;;5010668;28;20075;-74
2023/03/08 01:38:32;;;;;;;51.88;27.15;;;4.80;99.90;;;;;;4993524;28;20031;-74
2023/03/08 01:41:00;;;;;;;55.47;26.65;;;4.80;99.90;;;;;;4987023;28;20042;-73
2023/03/08 01:43:29;;;;;;;47.58;24.83;;;4.70;99.90;;;;;;5006543;28;20088;-74
2023/03/08 01:46:17;;;;;;;63.80;28.92;;;4.70;99.90;;;;;;5008826;28;20592;-73
2023/03/08 01:48:58;;;;;;;51.85;25.27;;;4.80;99.90;;;;;;5010881;28;20025;-74
2023/03/08 01:51:33;;;;;;;47.45;24.60;;;4.60;99.90;;;;;;4988759;28;20034;-73
2023/03/08 01:54:02;;;;;;;49.72;25.05;;;4.60;99.90;;;;;;5004745;28;20028;-74
2023/03/08 01:56:28;;;;;;;44.58;23.38;;;4.60;99.90;;;;;;5007526;28;20023;-74
2023/03/08 01:58:56;;;;;;;44.67;22.75;;;4.70;99.90;;;;;;5004201;28;20397;-74
2023/03/08 02:01:21;;;;;;;46.05;24.35;;;4.70;99.90;;;;;;4997799;28;20038;-74
2023/03/08 02:03:47;;;;;;;43.13;22.98;;;4.70;99.90;;;;;;4998028;28;20053;-73
2023/03/08 02:06:15;;;;;;;46.05;23.17;;;4.70;99.90;;;;;;5018435;27;20022;-74
2023/03/08 02:08:41;;;;;;;66.68;25.88;;;4.80;99.90;;;;;;5003030;28;20078;-74
2023/03/08 02:11:08;;;;;;;50.85;25.05;;;4.80;99.90;;;;;;5008178;28;20059;-73
2023/03/08 02:13:33;;;;;;;45.47;22.92;;;4.70;99.90;;;;;;4992477;28;20022;-73
2023/03/08 02:16:01;;;;;;;50.55;24.13;;;4.70;99.90;;;;;;5001526;28;20027;-73
2023/03/08 02:18:27;;;;;;;43.75;23.15;;;4.70;99.90;;;;;;5002828;28;20027;-73
2023/03/08 02:20:52;;;;;;;46.08;22.55;;;4.60;99.90;;;;;;5009681;28;20022;-73
2023/03/08 02:23:23;;;;;;;44.65;22.25;;;4.60;99.90;;;;;;4999349;28;20092;-74
2023/03/08 02:25:55;;;;;;;38.60;20.65;;;4.60;99.90;;;;;;4989719;28;20109;-73
2023/03/08 02:28:22;;;;;;;48.47;22.63;;;4.70;99.90;;;;;;5001175;28;20091;-73
2023/03/08 02:30:49;;;;;;;43.03;19.83;;;4.60;99.90;;;;;;4991796;28;20037;-73
2023/03/08 02:33:15;;;;;;;37.90;19.25;;;4.60;99.90;;;;;;5004050;28;20020;-73
2023/03/08 02:35:42;;;;;;;39.70;20.92;;;4.60;99.90;;;;;;5011175;28;20045;-74
2023/03/08 02:38:11;;;;;;;40.20;19.50;;;4.60;99.90;;;;;;5012863;28;20038;-73
2023/03/08 02:40:37;;;;;;;51.30;22.63;;;4.50;99.90;;;;;;5006585;28;20034;-74
2023/03/08 02:43:03;;;;;;;41.60;21.23;;;4.40;99.90;;;;;;5012140;28;20160;-73
2023/03/08 02:45:30;;;;;;;41.78;20.73;;;4.40;99.90;;;;;;4998746;28;20098;-73
2023/03/08 02:47:55;;;;;;;43.45;21.60;;;4.40;99.90;;;;;;4994292;28;20431;-73
2023/03/08 02:50:21;;;;;;;43.85;21.80;;;4.40;99.90;;;;;;5004370;28;20108;-73
2023/03/08 02:52:47;;;;;;;38.60;20.15;;;4.40;99.90;;;;;;4996751;28;20042;-74
2023/03/08 02:55:12;;;;;;;42.45;20.33;;;4.40;99.90;;;;;;5004794;28;20050;-74
2023/03/08 02:57:38;;;;;;;37.53;18.85;;;4.30;99.90;;;;;;5006076;28;20030;-73
2023/03/08 03:00:04;;;;;;;43.35;19.80;;;4.30;99.90;;;;;;4998311;28;20022;-73
2023/03/08 03:02:33;;;;;;;38.80;19.15;;;4.30;99.90;;;;;;5011023;28;20049;-74
2023/03/08 03:05:01;;;;;;;33.10;18.42;;;4.30;99.90;;;;;;5001960;28;20029;-73
2023/03/08 03:07:26;;;;;;;40.28;19.35;;;4.10;99.90;;;;;;5002183;28;20469;-74
2023/03/08 03:09:52;;;;;;;33.33;18.80;;;4.10;99.90;;;;;;4995783;28;20026;-73
2023/03/08 03:12:18;;;;;;;36.00;18.50;;;4.20;99.90;;;;;;4999806;28;20384;-73
2023/03/08 03:14:43;;;;;;;41.08;17.98;;;4.30;99.90;;;;;;5004036;28;20553;-73
2023/03/08 03:17:09;;;;;;;37.30;17.33;;;4.40;99.90;;;;;;5007136;28;20042;-73
2023/03/08 03:19:37;;;;;;;33.17;17.35;;;4.40;99.90;;;;;;4989504;28;20041;-73
2023/03/08 03:22:03;;;;;;;36.75;18.80;;;4.40;99.90;;;;;;4999752;28;20105;-73
2023/03/08 03:24:28;;;;;;;34.13;17.77;;;4.40;99.90;;;;;;4990231;28;20122;-73
2023/03/08 03:26:54;;;;;;;30.63;18.05;;;4.40;99.90;;;;;;5003284;28;21162;-73
2023/03/08 03:29:20;;;;;;;39.22;18.13;;;4.50;99.90;;;;;;4993041;28;20037;-73
2023/03/08 03:31:47;;;;;;;29.80;15.27;;;4.50;99.90;;;;;;5010439;28;20061;-72
2023/03/08 03:34:13;;;;;;;52.47;20.48;;;4.50;99.90;;;;;;4991448;28;20298;-73
2023/03/08 03:36:39;;;;;;;38.75;19.08;;;4.40;99.90;;;;;;4999146;28;20507;-73
2023/03/08 03:39:05;;;;;;;30.90;16.02;;;4.40;99.90;;;;;;4994470;28;20035;-73
2023/03/08 03:41:30;;;;;;;31.50;16.50;;;4.30;99.90;;;;;;5003767;28;20105;-73
2023/03/08 03:43:57;;;;;;;31.50;17.10;;;4.30;99.90;;;;;;4996097;28;20175;-73
2023/03/08 03:46:23;;;;;;;29.05;15.93;;;4.40;99.90;;;;;;5010060;28;20027;-73
2023/03/08 03:48:49;;;;;;;31.40;16.90;;;4.40;99.90;;;;;;5006150;28;20028;-72
2023/03/08 03:51:17;;;;;;;32.00;17.77;;;4.40;99.90;;;;;;5001198;28;20035;-73
2023/03/08 03:53:44;;;;;;;27.80;15.07;;;4.40;99.90;;;;;;5006961;28;20023;-73
2023/03/08 03:56:12;;;;;;;29.95;16.10;;;4.40;99.90;;;;;;4991811;28;20486;-73
2023/03/08 03:58:38;;;;;;;31.10;16.90;;;4.30;99.90;;;;;;4999956;28;20075;-73
2023/03/08 04:01:08;;;;;;;32.17;16.85;;;4.40;99.90;;;;;;4990819;28;20026;-72
2023/03/08 04:03:34;;;;;;;37.90;17.50;;;4.40;99.90;;;;;;4983469;28;20463;-73
2023/03/08 04:06:08;;;;;;;32.80;16.75;;;4.40;99.90;;;;;;4980708;28;20030;-73
2023/03/08 04:08:40;;;;;;;34.03;17.80;;;4.30;99.90;;;;;;4984516;28;20641;-73
2023/03/08 04:11:07;;;;;;;34.92;17.65;;;4.30;99.90;;;;;;4982016;28;20031;-73
2023/03/08 04:13:33;;;;;;;31.40;17.73;;;4.30;99.90;;;;;;4982548;28;20034;-73
2023/03/08 04:15:58;;;;;;;30.30;16.65;;;4.40;99.90;;;;;;4975458;28;20027;-72
2023/03/08 04:18:24;;;;;;;33.55;17.65;;;4.30;99.90;;;;;;4981411;28;20030;-72
2023/03/08 04:20:50;;;;;;;30.13;15.35;;;4.20;99.90;;;;;;4982817;28;20034;-73
2023/03/08 04:23:15;;;;;;;29.35;14.73;;;4.10;99.90;;;;;;4987485;28;20124;-72
2023/03/08 04:25:41;;;;;;;31.55;16.13;;;4.00;99.90;;;;;;4984846;28;20060;-72
2023/03/08 04:28:06;;;;;;;27.25;15.15;;;3.90;99.90;;;;;;4983996;28;20034;-72
2023/03/08 04:30:32;;;;;;;28.15;15.27;;;4.00;99.90;;;;;;4981908;28;20038;-72
2023/03/08 04:32:58;;;;;;;29.85;15.38;;;4.10;99.90;;;;;;4981672;28;20034;-71
2023/03/08 04:35:23;;;;;;;27.90;15.27;;;4.10;99.90;;;;;;4983578;28;20437;-71
2023/03/08 04:37:49;;;;;;;28.65;15.13;;;4.10;99.90;;;;;;4979766;28;20039;-71
2023/03/08 04:40:14;;;;;;;33.65;16.17;;;4.20;99.90;;;;;;4982549;28;20539;-71
2023/03/08 04:42:40;;;;;;;33.08;16.63;;;4.20;99.90;;;;;;4979339;28;20064;-71
2023/03/08 04:45:07;;;;;;;30.63;15.57;;;4.10;99.90;;;;;;4984116;28;20474;-71
2023/03/08 04:47:33;;;;;;;28.17;14.65;;;4.10;99.90;;;;;;4986115;28;20140;-71
2023/03/08 04:49:58;;;;;;;28.85;15.18;;;4.20;99.90;;;;;;4983909;28;20494;-71
2023/03/08 04:52:24;;;;;;;31.83;15.93;;;4.20;99.90;;;;;;4981588;28;20058;-71
2023/03/08 04:54:49;;;;;;;28.50;15.15;;;4.10;99.90;;;;;;4982251;28;20029;-71
2023/03/08 04:57:15;;;;;;;29.05;15.75;;;4.10;99.90;;;;;;4976174;28;20724;-68
2023/03/08 04:59:43;;;;;;;28.45;14.40;;;4.00;99.90;;;;;;4980442;28;20027;-69
2023/03/08 05:02:08;;;;;;;43.42;16.40;;;4.00;99.90;;;;;;4987671;28;20022;-68
2023/03/08 05:04:34;;;;;;;22.35;12.85;;;4.10;99.90;;;;;;4988301;28;20370;-69
2023/03/08 05:06:59;;;;;;;27.13;12.70;;;4.00;99.90;;;;;;4977209;28;20019;-70
2023/03/08 05:09:25;;;;;;;20.33;11.02;;;3.90;99.90;;;;;;4983010;28;20087;-70
2023/03/08 05:11:51;;;;;;;24.92;10.82;;;3.90;99.90;;;;;;4984682;28;20418;-70
2023/03/08 05:14:16;;;;;;;21.58;9.82;;;3.90;99.90;;;;;;4986910;28;20040;-74
2023/03/08 05:16:42;;;;;;;22.85;11.30;;;3.90;99.90;;;;;;4998481;28;20023;-72
2023/03/08 05:19:07;;;;;;;22.20;11.13;;;4.00;99.90;;;;;;4980700;28;20108;-70
2023/03/08 05:21:33;;;;;;;17.80;10.90;;;3.80;99.90;;;;;;4985427;28;20053;-70
2023/03/08 05:23:59;;;;;;;23.58;12.05;;;3.70;99.90;;;;;;4988561;28;20041;-70
2023/03/08 05:26:25;;;;;;;24.60;12.98;;;3.90;99.90;;;;;;4983055;28;20018;-70
2023/03/08 05:28:50;;;;;;;27.33;14.07;;;3.80;99.90;;;;;;4980607;28;20476;-71
2023/03/08 05:31:19;;;;;;;28.08;12.98;;;3.70;99.90;;;;;;4985542;28;20920;-71
2023/03/08 05:33:49;;;;;;;19.98;11.27;;;3.40;99.90;;;;;;4983296;28;20106;-69
2023/03/08 05:36:15;;;;;;;24.92;13.05;;;3.50;99.90;;;;;;4983012;28;20486;-70
2023/03/08 05:38:41;;;;;;;28.58;13.05;;;3.50;99.90;;;;;;4980314;28;20047;-69
2023/03/08 05:41:11;;;;;;;22.33;11.10;;;3.50;99.90;;;;;;4985809;28;20014;-70
2023/03/08 05:43:36;;;;;;;20.63;10.88;;;3.40;99.90;;;;;;4978606;28;20041;-70
2023/03/08 05:46:07;;;;;;;20.13;9.23;;;3.50;99.90;;;;;;4989244;28;20030;-71
2023/03/08 05:48:34;;;;;;;14.07;7.93;;;3.40;99.90;;;;;;4977399;28;20161;-71
2023/03/08 05:51:08;;;;;;;14.80;7.80;;;3.50;99.90;;;;;;4987000;28;20503;-70
2023/03/08 05:53:35;;;;;;;13.93;6.95;;;3.50;99.90;;;;;;4981791;28;20044;-71
2023/03/08 05:56:12;;;;;;;10.57;6.60;;;3.40;99.90;;;;;;4985451;28;20029;-70
2023/03/08 05:58:37;;;;;;;12.43;6.72;;;3.30;99.90;;;;;;4981700;28;20113;-70
2023/03/08 06:01:17;;;;;;;13.70;5.68;;;3.20;99.90;;;;;;4982612;28;20102;-71
2023/03/08 06:03:45;;;;;;;10.23;5.57;;;3.10;99.90;;;;;;4985922;28;20126;-71
2023/03/08 06:06:11;;;;;;;9.85;5.68;;;3.20;99.90;;;;;;4983901;28;20026;-71
2023/03/08 06:08:37;;;;;;;9.27;5.50;;;3.10;99.90;;;;;;4985009;28;20026;-70
2023/03/08 06:11:03;;;;;;;13.43;6.80;;;3.30;99.90;;;;;;4988712;28;20029;-71
2023/03/08 06:13:28;;;;;;;12.07;6.68;;;3.30;99.90;;;;;;4979350;28;20177;-71
2023/03/08 06:15:56;;;;;;;18.40;7.30;;;3.30;99.90;;;;;;4984041;28;20579;-70
2023/03/08 06:18:22;;;;;;;9.95;6.65;;;3.30;99.90;;;;;;4982353;28;20099;-71
2023/03/08 06:21:09;;;;;;;12.38;7.60;;;3.30;99.90;;;;;;4983420;28;20022;-71
2023/03/08 06:23:35;;;;;;;10.85;7.07;;;3.20;99.90;;;;;;4987564;28;20042;-71
2023/03/08 06:26:02;;;;;;;13.13;7.68;;;3.40;99.90;;;;;;4987191;28;20045;-71
2023/03/08 06:28:29;;;;;;;17.88;8.52;;;3.30;99.90;;;;;;4986395;28;20030;-71
2023/03/08 06:30:55;;;;;;;15.57;8.48;;;3.30;99.90;;;;;;4977732;28;20043;-71
2023/03/08 06:33:24;;;;;;;16.77;9.73;;;3.40;99.90;;;;;;4985163;28;20061;-71
2023/03/08 06:36:00;;;;;;;21.45;10.55;;;3.20;99.90;;;;;;4980538;28;20030;-71
2023/03/08 06:38:27;;;;;;;19.83;9.80;;;3.20;99.90;;;;;;4983036;28;20391;-70
2023/03/08 06:40:53;;;;;;;22.88;10.50;;;3.20;99.90;;;;;;4981596;28;20035;-70
2023/03/08 06:43:19;;;;;;;19.85;10.95;;;3.10;99.90;;;;;;4983038;28;20075;-69
2023/03/08 06:45:44;;;;;;;19.52;11.15;;;3.00;99.90;;;;;;4990663;28;20068;-71
2023/03/08 06:48:10;;;;;;;30.58;13.18;;;3.00;99.90;;;;;;4983314;28;20105;-68
2023/03/08 06:50:36;;;;;;;21.30;12.00;;;3.00;99.90;;;;;;4979586;28;20026;-69
2023/03/08 06:53:01;;;;;;;18.52;10.95;;;3.10;99.90;;;;;;4983451;28;20034;-69
2023/03/08 06:55:27;;;;;;;22.92;11.55;;;3.10;99.90;;;;;;4988397;28;20068;-68
2023/03/08 06:57:54;;;;;;;19.17;10.63;;;3.10;99.90;;;;;;4990625;28;20030;-70
2023/03/08 07:00:20;;;;;;;17.90;10.45;;;3.20;99.90;;;;;;4990945;28;20491;-70
2023/03/08 07:02:47;;;;;;;18.40;10.25;;;3.20;99.90;;;;;;4987641;28;20050;-70
2023/03/08 07:05:16;;;;;;;17.05;9.82;;;3.00;99.90;;;;;;4994930;28;20114;-74
2023/03/08 07:07:42;;;;;;;16.13;9.45;;;3.10;99.90;;;;;;4984743;28;20379;-70
2023/03/08 07:10:15;;;;;;;16.08;9.40;;;3.00;99.90;;;;;;4984310;28;20029;-70
2023/03/08 07:12:45;;;;;;;17.63;9.27;;;3.00;99.90;;;;;;4988772;28;20026;-69
2023/03/08 07:15:13;;;;;;;16.65;9.38;;;3.10;99.90;;;;;;4982108;28;20022;-70
2023/03/08 07:17:40;;;;;;;17.50;10.00;;;3.10;99.90;;;;;;4983066;28;20033;-69
2023/03/08 07:20:07;;;;;;;12.63;8.45;;;3.10;99.90;;;;;;4984710;28;20639;-69
2023/03/08 07:22:33;;;;;;;14.63;8.55;;;3.20;99.90;;;;;;4986378;28;20118;-70
2023/03/08 07:24:58;;;;;;;16.10;8.10;;;3.20;99.90;;;;;;4987347;28;20027;-70
2023/03/08 07:27:24;;;;;;;13.50;7.93;;;3.10;99.90;;;;;;4986561;28;20049;-70
2023/03/08 07:29:50;;;;;;;12.48;7.40;;;3.00;99.90;;;;;;4978922;28;20027;-70
2023/03/08 07:32:16;;;;;;;11.57;7.07;;;3.00;99.90;;;;;;4985912;28;20122;-71
2023/03/08 07:34:42;;;;;;;12.43;7.95;;;3.00;99.90;;;;;;4989172;28;20483;-70
2023/03/08 07:37:12;;;;;;;13.23;7.20;;;3.00;99.90;;;;;;4989064;28;20040;-71
2023/03/08 07:39:37;;;;;;;14.95;8.98;;;3.10;99.90;;;;;;4983591;28;20070;-70
2023/03/08 07:42:03;;;;;;;13.75;8.35;;;3.10;99.90;;;;;;4979447;28;20491;-70
2023/03/08 07:44:29;;;;;;;13.00;8.15;;;3.10;99.90;;;;;;4981735;28;20090;-70
2023/03/08 07:46:55;;;;;;;14.27;8.60;;;3.10;99.90;;;;;;4981249;28;20096;-70
2023/03/08 07:49:20;;;;;;;14.35;9.63;;;3.00;99.90;;;;;;4984834;28;20490;-71
2023/03/08 07:51:49;;;;;;;14.63;8.55;;;3.00;99.90;;;;;;4986418;28;20444;-70
2023/03/08 07:54:15;;;;;;;14.70;8.93;;;3.10;99.90;;;;;;4988863;28;20061;-70
2023/03/08 07:56:41;;;;;;;13.02;7.32;;;3.10;99.90;;;;;;4989204;28;20077;-70
2023/03/08 07:59:07;;;;;;;12.30;7.55;;;3.20;99.90;;;;;;4982394;28;20038;-70
2023/03/08 08:01:32;;;;;;;11.27;7.85;;;3.10;99.90;;;;;;4985045;28;20014;-69
2023/03/08 08:03:59;;;;;;;12.70;7.53;;;3.00;99.90;;;;;;4981981;28;20043;-69
2023/03/08 08:06:26;;;;;;;15.13;8.38;;;3.00;99.90;;;;;;4989300;28;20486;-73
2023/03/08 08:08:51;;;;;;;9.65;6.88;;;3.00;99.90;;;;;;4990036;28;20029;-73
2023/03/08 08:11:20;;;;;;;10.18;6.88;;;3.00;99.90;;;;;;4990960;28;20023;-73
2023/03/08 08:13:46;;;;;;;11.70;7.20;;;3.00;99.90;;;;;;4973636;28;20109;-72
2023/03/08 08:16:13;;;;;;;13.52;7.57;;;3.10;99.90;;;;;;4988111;28;20101;-73
2023/03/08 08:18:39;;;;;;;14.82;8.55;;;3.20;99.90;;;;;;4988566;28;20487;-72
2023/03/08 08:21:07;;;;;;;13.23;8.48;;;3.20;99.90;;;;;;4986092;28;20046;-73
2023/03/08 08:23:34;;;;;;;16.33;9.07;;;3.20;99.90;;;;;;4980319;28;20395;-72
2023/03/08 08:26:03;;;;;;;20.17;9.63;;;3.20;99.90;;;;;;4984873;28;20058;-71
2023/03/08 08:28:29;;;;;;;13.73;9.48;;;3.20;99.90;;;;;;4979965;28;20054;-72
2023/03/08 08:31:04;;;;;;;16.13;10.48;;;3.20;99.90;;;;;;4979715;28;20102;-71
2023/03/08 08:33:30;;;;;;;17.90;11.45;;;3.20;99.90;;;;;;4990064;28;20030;-72
2023/03/08 08:35:57;;;;;;;22.25;12.98;;;3.10;99.90;;;;;;4983998;28;20034;-76
2023/03/08 08:38:23;;;;;;;19.95;12.48;;;3.30;99.90;;;;;;4982239;28;20031;-72
2023/03/08 08:40:49;;;;;;;21.27;12.15;;;3.30;99.90;;;;;;4982613;28;20071;-72
2023/03/08 08:43:15;;;;;;;19.70;12.73;;;3.30;99.90;;;;;;4983688;28;20066;-72
2023/03/08 08:45:46;;;;;;;24.73;13.57;;;3.50;99.90;;;;;;4980446;28;20319;-73
2023/03/08 08:48:13;;;;;;;19.80;12.75;;;3.50;99.90;;;;;;4985490;28;20363;-71
2023/03/08 08:50:42;;;;;;;21.27;13.23;;;3.40;99.90;;;;;;4976405;28;20027;-71
2023/03/08 08:53:09;;;;;;;23.77;14.10;;;3.50;99.90;;;;;;4991028;28;20076;-71
2023/03/08 08:55:35;;;;;;;23.55;14.52;;;3.60;99.90;;;;;;4977827;28;20486;-71
2023/03/08 08:58:02;;;;;;;21.55;13.77;;;3.60;99.90;;;;;;4983444;28;20021;-72
2023/03/08 09:00:28;;;;;;;20.38;13.02;;;3.70;99.90;;;;;;4984215;28;20030;-71
2023/03/08 09:02:54;;;;;;;22.60;13.32;;;3.70;99.90;;;;;;4999383;28;20117;-72
2023/03/08 09:05:19;;;;;;;24.50;13.25;;;3.60;99.90;;;;;;4982896;28;20031;-72
2023/03/08 09:07:45;;;;;;;21.75;13.27;;;3.50;99.90;;;;;;4980355;28;20022;-72
2023/03/08 09:10:11;;;;;;;20.77;13.52;;;3.50;99.90;;;;;;4983393;28;20038;-71
2023/03/08 09:12:37;;;;;;;24.17;14.43;;;3.60;99.90;;;;;;4977936;28;20391;-71
2023/03/08 09:15:05;;;;;;;20.17;13.07;;;3.60;99.90;;;;;;4976637;28;20027;-71
2023/03/08 09:17:32;;;;;;;22.60;13.38;;;3.50;99.90;;;;;;4998922;28;20450;-72
2023/03/08 09:19:58;;;;;;;19.90;11.73;;;3.60;99.90;;;;;;4978046;28;20683;-72
2023/03/08 09:22:26;;;;;;;21.27;12.52;;;3.60;99.90;;;;;;4987573;28;20034;-71
2023/03/08 09:24:51;;;;;;;19.27;11.82;;;3.60;99.90;;;;;;4989296;28;20041;-71
2023/03/08 09:27:17;;;;;;;18.92;12.38;;;3.60;99.90;;;;;;4983063;28;20026;-71
2023/03/08 09:29:43;;;;;;;18.40;12.30;;;3.60;99.90;;;;;;4980745;28;20023;-71
2023/03/08 09:32:08;;;;;;;19.45;12.45;;;3.60;99.90;;;;;;4974119;28;20584;-70
2023/03/08 09:34:34;;;;;;;20.80;13.52;;;3.70;99.90;;;;;;4991035;28;20558;-71
2023/03/08 09:37:00;;;;;;;21.10;12.73;;;3.80;99.90;;;;;;5008654;28;20037;-72
2023/03/08 09:39:26;;;;;;;21.90;13.88;;;3.80;99.90;;;;;;5001326;28;20123;-71
2023/03/08 09:42:02;;;;;;;21.63;13.43;;;4.10;99.90;;;;;;4999325;28;20028;-71
2023/03/08 09:44:42;;;;;;;20.38;12.80;;;4.10;99.90;;;;;;4997069;28;20091;-72
2023/03/08 09:47:33;;;;;;;22.60;14.82;;;4.30;99.90;;;;;;5007401;28;20045;-72
2023/03/08 09:50:11;;;;;;;24.63;15.02;;;4.20;99.90;;;;;;4994104;28;20103;-72
2023/03/08 09:53:15;;;;;;;22.58;15.60;;;4.20;99.90;;;;;;5007951;28;20065;-73
2023/03/08 09:55:47;;;;;;;21.27;14.65;;;4.30;99.90;;;;;;5005334;28;20029;-72
2023/03/08 09:58:30;;;;;;;22.07;12.70;;;4.20;99.90;;;;;;5010873;28;20132;-72
2023/03/08 10:01:12;;;;;;;23.42;14.48;;;4.10;99.90;;;;;;5010372;28;21138;-72
2023/03/08 10:04:00;;;;;;;21.08;14.65;;;4.00;99.90;;;;;;5012386;28;20035;-73
2023/03/08 10:06:34;;;;;;;21.05;13.68;;;4.10;99.90;;;;;;5004311;28;20428;-72
2023/03/08 10:09:00;;;;;;;20.83;13.60;;;4.20;99.90;;;;;;5000308;28;20026;-74
2023/03/08 10:11:33;;;;;;;20.30;13.13;;;4.00;99.90;;;;;;4992658;28;20030;-74
2023/03/08 10:14:08;;;;;;;23.33;15.02;;;4.10;99.90;;;;;;4999011;28;20030;-72
2023/03/08 10:16:47;;;;;;;24.50;15.57;;;4.20;99.90;;;;;;5001185;28;20031;-72
2023/03/08 10:19:20;;;;;;;23.20;16.00;;;4.30;99.90;;;;;;4993851;28;20118;-74
2023/03/08 10:21:47;;;;;;;24.90;16.73;;;4.40;99.90;;;;;;5000288;28;20034;-72
2023/03/08 10:24:25;;;;;;;27.75;17.95;;;4.40;99.90;;;;;;5003962;28;20038;-73
2023/03/08 10:26:53;;;;;;;30.30;19.92;;;4.20;99.90;;;;;;5008824;28;20113;-73
2023/03/08 10:29:20;;;;;;;28.38;18.42;;;4.30;99.90;;;;;;4986842;28;20050;-72
2023/03/08 10:31:46;;;;;;;30.33;18.38;;;4.30;99.90;;;;;;5023309;27;20030;-72
2023/03/08 10:34:19;;;;;;;29.38;18.60;;;4.30;99.90;;;;;;4996613;28;20030;-72
2023/03/08 10:36:50;;;;;;;30.13;18.20;;;4.20;99.90;;;;;;5001880;28;20030;-72
2023/03/08 10:39:16;;;;;;;28.63;18.33;;;4.20;99.90;;;;;;4997519;28;20088;-72
2023/03/08 10:41:46;;;;;;;30.10;18.83;;;4.10;99.90;;;;;;4994692;28;20026;-72
2023/03/08 10:44:26;;;;;;;27.17;17.55;;;4.00;99.90;;;;;;4994678;28;20042;-73
2023/03/08 10:46:51;;;;;;;28.67;17.95;;;4.20;99.90;;;;;;4998599;28;20052;-72
2023/03/08 10:49:21;;;;;;;29.48;18.08;;;4.30;99.90;;;;;;5001033;28;20446;-72
2023/03/08 10:51:59;;;;;;;29.77;19.10;;;4.30;99.90;;;;;;5008141;28;20091;-72
2023/03/08 10:54:27;;;;;;;29.00;17.63;;;4.10;99.90;;;;;;4991048;28;20474;-74
2023/03/08 10:56:58;;;;;;;30.13;19.00;;;4.10;99.90;;;;;;5000672;28;20040;-72
2023/03/08 10:59:35;;;;;;;31.33;19.57;;;4.00;99.90;;;;;;5006817;28;20037;-72
2023/03/08 11:02:12;;;;;;;30.45;18.77;;;4.10;99.90;;;;;;5008827;28;20024;-72
2023/03/08 11:04:48;;;;;;;31.60;20.38;;;4.10;99.90;;;;;;4990470;28;20072;-73
2023/03/08 11:07:34;;;;;;;29.55;18.08;;;4.20;99.90;;;;;;4999334;28;20039;-73
2023/03/08 11:10:13;;;;;;;28.65;17.80;;;4.10;99.90;;;;;;5010255;28;20046;-72
2023/03/08 11:12:39;;;;;;;23.85;16.60;;;4.10;99.90;;;;;;5008590;28;20027;-72
2023/03/08 11:15:18;;;;;;;25.73;16.98;;;4.20;99.90;;;;;;4994916;28;20038;-72
2023/03/08 11:18:00;;;;;;;24.88;16.73;;;4.20;99.90;;;;;;4998727;28;20148;-72
2023/03/08 11:20:35;;;;;;;23.02;16.38;;;4.20;99.90;;;;;;5003401;28;20030;-73
2023/03/08 11:23:22;;;;;;;21.92;16.38;;;4.00;99.90;;;;;;4989992;28;20046;-74
2023/03/08 11:25:59;;;;;;;23.70;16.15;;;4.00;99.90;;;;;;5003706;28;20364;-73
2023/03/08 11:29:01;;;;;;;25.27;16.95;;;4.00;99.90;;;;;;4996110;28;20047;-72
2023/03/08 11:31:29;;;;;;;21.95;15.45;;;4.10;99.90;;;;;;5006570;28;20386;-73
2023/03/08 11:34:14;;;;;;;23.98;16.63;;;4.20;99.90;;;;;;5005769;28;20037;-73
2023/03/08 11:36:50;;;;;;;26.75;16.75;;;4.10;99.90;;;;;;5000116;28;20030;-72
2023/03/08 11:39:32;;;;;;;25.88;17.63;;;4.20;99.90;;;;;;5009666;28;20151;-72
2023/03/08 11:42:32;;;;;;;24.70;18.25;;;4.10;99.90;;;;;;4992012;28;20054;-72
2023/03/08 11:45:13;;;;;;;26.42;18.38;;;4.30;99.90;;;;;;5004299;28;20046;-72
2023/03/08 11:47:57;;;;;;;27.77;19.17;;;4.20;99.90;;;;;;5002059;28;20030;-73
2023/03/08 11:50:32;;;;;;;28.60;19.27;;;4.30;99.90;;;;;;4997030;28;20026;-72
2023/03/08 11:53:19;;;;;;;26.92;19.05;;;4.00;99.90;;;;;;5021686;28;20043;-73
2023/03/08 11:55:59;;;;;;;29.55;20.58;;;4.10;99.90;;;;;;5021030;28;20427;-73
2023/03/08 11:58:28;;;;;;;33.35;21.15;;;4.10;99.90;;;;;;5005051;28;20031;-72
2023/03/08 12:01:00;;;;;;;29.15;20.08;;;4.20;99.90;;;;;;4988716;28;20101;-74
2023/03/08 12:03:32;;;;;;;29.98;21.25;;;4.00;99.90;;;;;;5010088;28;20042;-74
2023/03/08 12:06:36;;;;;;;33.33;21.40;;;4.10;99.90;;;;;;4994389;28;20026;-73
2023/03/08 12:09:12;;;;;;;32.97;21.02;;;4.10;99.90;;;;;;5012628;28;20026;-73
2023/03/08 12:11:46;;;;;;;33.10;21.30;;;4.00;99.90;;;;;;4997594;28;20374;-73
2023/03/08 12:14:20;;;;;;;34.30;20.20;;;4.00;99.90;;;;;;5000227;28;20027;-73
2023/03/08 12:17:10;;;;;;;35.03;23.23;;;4.00;99.90;;;;;;5004970;28;20077;-73
2023/03/08 12:19:43;;;;;;;34.15;22.08;;;4.00;99.90;;;;;;5007926;28;21401;-73
2023/03/08 12:22:49;;;;;;;38.25;23.50;;;4.00;99.90;;;;;;5001471;28;20026;-73
2023/03/08 12:25:25;;;;;;;38.10;24.45;;;4.10;99.90;;;;;;5010962;28;20030;-73
2023/03/08 12:27:53;;;;;;;38.33;23.98;;;4.00;99.90;;;;;;4997072;28;20105;-72
2023/03/08 12:30:26;;;;;;;37.38;22.42;;;4.00;99.90;;;;;;5001745;28;20062;-73
2023/03/08 12:32:54;;;;;;;37.70;23.55;;;4.00;99.90;;;;;;4990447;28;20038;-73
2023/03/08 12:35:27;;;;;;;42.72;25.17;;;4.10;99.90;;;;;;4994826;28;20472;-73
2023/03/08 12:38:01;;;;;;;38.22;24.48;;;4.10;99.90;;;;;;5009838;28;20542;-73
2023/03/08 12:40:40;;;;;;;39.13;23.95;;;4.10;99.90;;;;;;4990115;28;20030;-72
2023/03/08 12:43:27;;;;;;;40.08;24.45;;;4.20;99.90;;;;;;5001064;28;20042;-73
2023/03/08 12:45:56;;;;;;;38.53;23.80;;;4.20;99.90;;;;;;5005308;28;20519;-73
2023/03/08 12:48:24;;;;;;;38.03;23.77;;;3.90;99.90;;;;;;5008329;28;20081;-73